createdAt,value
2018-12-16T00:01:15.785Z,-2.28
2018-12-16T00:03:41.676Z,-2.21
2018-12-16T00:06:07.574Z,-2.28
2018-12-16T00:08:33.437Z,-2.33
2018-12-16T00:11:02.761Z,-2.23
2018-12-16T00:13:28.733Z,-2.17
2018-12-16T00:15:54.630Z,-2.26
2018-12-16T00:18:20.522Z,-2.15
2018-12-16T00:20:46.448Z,-2.19
2018-12-16T00:23:13.092Z,-2.34
2018-12-16T00:25:38.963Z,-2.35
2018-12-16T00:28:07.672Z,-2.32
2018-12-16T00:30:33.569Z,-2.35
2018-12-16T00:32:59.630Z,-2.39
2018-12-16T00:35:28.717Z,-2.39
2018-12-16T00:37:57.913Z,-2.33
2018-12-16T00:40:23.760Z,-2.25
2018-12-16T00:42:52.821Z,-2.23
2018-12-16T00:45:19.288Z,-2.26
2018-12-16T00:47:48.471Z,-2.22
2018-12-16T00:50:14.373Z,-2.22
2018-12-16T00:52:40.263Z,-2.15
2018-12-16T00:55:06.294Z,-2.09
2018-12-16T00:57:32.163Z,-2.05
2018-12-16T00:59:59.290Z,-3.22
2018-12-16T01:02:31.509Z,-2.09
2018-12-16T01:04:57.428Z,-2.11
2018-12-16T01:07:23.379Z,-2.07
2018-12-16T01:09:49.277Z,-2.08
2018-12-16T01:12:15.145Z,-2.23
2018-12-16T01:14:44.803Z,-2.20
2018-12-16T01:17:10.703Z,-2.16
2018-12-16T01:19:38.383Z,-2.23
2018-12-16T01:22:04.309Z,-2.10
2018-12-16T01:24:33.322Z,-2.01
2018-12-16T01:26:59.194Z,-2.11
2018-12-16T01:29:25.076Z,-2.06
2018-12-16T01:31:50.949Z,-2.08
2018-12-16T01:34:16.912Z,-2.17
2018-12-16T01:36:45.983Z,-2.21
2018-12-16T01:39:11.868Z,-2.22
2018-12-16T01:41:39.476Z,-2.13
2018-12-16T01:44:05.341Z,-2.12
2018-12-16T01:46:34.563Z,-2.13
2018-12-16T01:49:00.427Z,-2.09
2018-12-16T01:51:29.439Z,-2.05
2018-12-16T01:53:55.324Z,-2.00
2018-12-16T01:56:23.119Z,-1.99
2018-12-16T01:58:49.036Z,-2.04
2018-12-16T02:01:20.131Z,-2.08
2018-12-16T02:03:46.035Z,-2.18
2018-12-16T02:06:11.952Z,-2.18
2018-12-16T02:08:37.954Z,-2.08
2018-12-16T02:11:03.890Z,-2.19
2018-12-16T02:13:29.788Z,-2.12
2018-12-16T02:15:56.180Z,-2.04
2018-12-16T02:18:26.061Z,-2.06
2018-12-16T02:20:52.300Z,-1.99
2018-12-16T02:23:18.766Z,-1.97
2018-12-16T02:25:44.692Z,-1.99
2018-12-16T02:28:13.174Z,-1.85
2018-12-16T02:30:39.059Z,-1.87
2018-12-16T02:33:07.933Z,-1.96
2018-12-16T02:35:33.807Z,-2.07
2018-12-16T02:38:03.567Z,-2.04
2018-12-16T02:40:29.463Z,-1.95
2018-12-16T02:42:55.530Z,-2.05
2018-12-16T02:45:21.417Z,-2.01
2018-12-16T02:47:47.654Z,-2.07
2018-12-16T02:50:14.799Z,-2.02
2018-12-16T02:52:40.652Z,-2.02
2018-12-16T02:55:09.412Z,-2.06
2018-12-16T02:57:35.331Z,-2.06
2018-12-16T03:00:04.528Z,-2.07
2018-12-16T03:02:30.446Z,-2.10
2018-12-16T03:04:59.937Z,-2.01
2018-12-16T03:07:25.830Z,-1.96
2018-12-16T03:09:55.221Z,-1.96
2018-12-16T03:12:21.192Z,-1.94
2018-12-16T03:14:48.971Z,-1.98
2018-12-16T03:17:15.325Z,-2.02
2018-12-16T03:19:41.168Z,-1.98
2018-12-16T03:22:07.387Z,-1.90
2018-12-16T03:24:33.298Z,-1.82
2018-12-16T03:27:01.064Z,-1.85
2018-12-16T03:29:26.977Z,-1.87
2018-12-16T03:31:56.179Z,-1.94
2018-12-16T03:34:22.154Z,-1.94
2018-12-16T03:36:49.947Z,-1.89
2018-12-16T03:39:15.848Z,-1.76
2018-12-16T03:41:45.641Z,-1.69
2018-12-16T03:44:11.589Z,-1.77
2018-12-16T03:46:39.489Z,-1.75
2018-12-16T03:49:05.386Z,-1.69
2018-12-16T03:51:35.262Z,-1.78
2018-12-16T03:54:01.155Z,-1.87
2018-12-16T03:56:27.041Z,-1.93
2018-12-16T03:59:05.416Z,-1.92
2018-12-16T04:01:31.304Z,-1.99
2018-12-16T04:03:57.204Z,-1.98
2018-12-16T04:06:23.094Z,-2.01
2018-12-16T04:08:48.959Z,-2.01
2018-12-16T04:11:14.830Z,-2.11
2018-12-16T04:13:40.704Z,-2.19
2018-12-16T04:16:06.692Z,-2.25
2018-12-16T04:18:32.576Z,-2.34
2018-12-16T04:20:58.423Z,-2.32
2018-12-16T04:23:27.605Z,-2.31
2018-12-16T04:25:52.231Z,-2.36
2018-12-16T04:28:19.558Z,-2.34
2018-12-16T04:30:45.485Z,-2.39
2018-12-16T04:33:11.390Z,-2.46
2018-12-16T04:35:37.308Z,-2.49
2018-12-16T04:38:03.258Z,-2.42
2018-12-16T04:40:32.237Z,-2.44
2018-12-16T04:42:58.134Z,-2.44
2018-12-16T04:45:25.857Z,-2.52
2018-12-16T04:47:51.798Z,-2.54
2018-12-16T04:50:20.654Z,-2.58
2018-12-16T04:52:46.538Z,-2.60
2018-12-16T04:55:16.399Z,-2.60
2018-12-16T04:57:42.293Z,-2.62
2018-12-16T05:00:10.137Z,-2.69
2018-12-16T05:02:36.053Z,-2.55
2018-12-16T05:05:05.928Z,-2.56
2018-12-16T05:07:31.820Z,-2.60
2018-12-16T05:10:05.923Z,-2.49
2018-12-16T05:12:31.782Z,-2.44
2018-12-16T05:14:57.684Z,-2.41
2018-12-16T05:17:23.644Z,-2.36
2018-12-16T05:19:49.515Z,-2.44
2018-12-16T05:22:15.418Z,-2.48
2018-12-16T05:24:41.344Z,-2.41
2018-12-16T05:27:07.471Z,-2.41
2018-12-16T05:29:33.456Z,-2.40
2018-12-16T05:32:00.496Z,-2.30
2018-12-16T05:34:26.374Z,-2.21
2018-12-16T05:36:55.894Z,-2.18
2018-12-16T05:39:21.790Z,-2.06
2018-12-16T05:41:49.767Z,-1.94
2018-12-16T05:44:15.657Z,-1.84
2018-12-16T05:46:41.593Z,-1.67
2018-12-16T05:49:07.502Z,-1.61
2018-12-16T05:51:33.371Z,-1.56
2018-12-16T05:54:02.514Z,-1.51
2018-12-16T05:56:28.388Z,-1.43
2018-12-16T05:58:56.032Z,-1.36
2018-12-16T06:01:22.025Z,-1.95
2018-12-16T06:03:50.744Z,-1.41
2018-12-16T06:06:16.652Z,-1.49
2018-12-16T06:08:45.500Z,-1.38
2018-12-16T06:11:11.385Z,-1.36
2018-12-16T06:13:40.994Z,-1.39
2018-12-16T06:16:06.931Z,-1.35
2018-12-16T06:18:36.731Z,-1.32
2018-12-16T06:21:02.620Z,-1.32
2018-12-16T06:23:28.515Z,-1.27
2018-12-16T06:25:54.372Z,-1.20
2018-12-16T06:28:21.366Z,-1.18
2018-12-16T06:30:47.619Z,-1.13
2018-12-16T06:33:13.527Z,-1.15
2018-12-16T06:35:42.770Z,-1.03
2018-12-16T06:38:08.629Z,-1.07
2018-12-16T06:40:36.379Z,-1.06
2018-12-16T06:43:02.381Z,-1.04
2018-12-16T06:45:31.181Z,-0.98
2018-12-16T06:47:57.053Z,-0.94
2018-12-16T06:50:25.726Z,-0.98
2018-12-16T06:52:51.598Z,-0.91
2018-12-16T06:55:20.361Z,-0.86
2018-12-16T06:57:46.227Z,-0.89
2018-12-16T07:00:12.419Z,-0.90
2018-12-16T07:02:38.324Z,-0.96
2018-12-16T07:05:04.448Z,-0.81
2018-12-16T07:07:32.268Z,-0.83
2018-12-16T07:09:58.143Z,-0.78
2018-12-16T07:12:27.350Z,-0.71
2018-12-16T07:14:53.379Z,-0.74
2018-12-16T07:17:22.718Z,-0.70
2018-12-16T07:19:48.682Z,-0.74
2018-12-16T07:22:16.255Z,-0.76
2018-12-16T07:24:42.186Z,-0.75
2018-12-16T07:27:10.672Z,-0.70
2018-12-16T07:29:36.616Z,-0.70
2018-12-16T07:32:05.428Z,-0.55
2018-12-16T07:34:31.420Z,-0.55
2018-12-16T07:36:57.295Z,-0.56
2018-12-16T07:39:23.207Z,-0.70
2018-12-16T07:41:49.103Z,-0.42
2018-12-16T07:44:17.920Z,-0.44
2018-12-16T07:46:43.826Z,-0.51
2018-12-16T07:49:13.351Z,-0.56
2018-12-16T07:51:39.377Z,-0.56
2018-12-16T07:54:07.028Z,-0.51
2018-12-16T07:56:32.978Z,-0.51
2018-12-16T07:59:01.472Z,-0.48
2018-12-16T08:01:27.472Z,-0.47
2018-12-16T08:03:56.528Z,-0.45
2018-12-16T08:06:22.424Z,-0.47
2018-12-16T08:08:52.011Z,-0.50
2018-12-16T08:11:18.106Z,-0.55
2018-12-16T08:13:44.213Z,-0.51
2018-12-16T08:16:10.100Z,-0.52
2018-12-16T08:18:36.004Z,-0.47
2018-12-16T08:21:03.317Z,-0.38
2018-12-16T08:23:29.252Z,-0.35
2018-12-16T08:25:59.029Z,-0.38
2018-12-16T08:28:24.975Z,-0.39
2018-12-16T08:30:53.987Z,-0.33
2018-12-16T08:33:19.990Z,-0.27
2018-12-16T08:35:47.641Z,-0.21
2018-12-16T08:38:13.557Z,-0.18
2018-12-16T08:40:43.274Z,-0.11
2018-12-16T08:43:09.176Z,-0.06
2018-12-16T08:45:36.862Z,0.00
2018-12-16T08:48:02.882Z,0.07
2018-12-16T08:50:28.902Z,0.08
2018-12-16T08:52:54.778Z,0.06
2018-12-16T08:55:20.680Z,0.07
2018-12-16T08:57:48.560Z,0.12
2018-12-16T09:00:14.498Z,0.16
2018-12-16T09:02:44.260Z,0.31
2018-12-16T09:05:10.140Z,0.06
2018-12-16T09:07:37.951Z,0.65
2018-12-16T09:10:08.075Z,0.80
2018-12-16T09:12:34.139Z,0.93
2018-12-16T09:15:00.218Z,1.19
2018-12-16T09:17:27.622Z,1.70
2018-12-16T09:19:53.544Z,2.43
2018-12-16T09:22:23.309Z,2.67
2018-12-16T09:24:49.223Z,2.64
2018-12-16T09:27:15.175Z,2.48
2018-12-16T09:29:41.143Z,2.59
2018-12-16T09:32:07.009Z,2.67
2018-12-16T09:34:34.005Z,2.32
2018-12-16T09:36:59.912Z,2.24
2018-12-16T09:39:29.708Z,2.39
2018-12-16T09:41:58.371Z,2.77
2018-12-16T09:44:24.350Z,3.81
2018-12-16T09:46:50.255Z,5.16
2018-12-16T09:49:18.034Z,5.37
2018-12-16T09:51:49.718Z,4.90
2018-12-16T09:54:15.739Z,4.60
2018-12-16T09:56:41.780Z,4.40
2018-12-16T09:59:07.664Z,4.46
2018-12-16T10:01:33.562Z,5.01
2018-12-16T10:03:59.427Z,5.33
2018-12-16T10:06:25.970Z,5.23
2018-12-16T10:08:51.873Z,5.17
2018-12-16T10:11:18.684Z,6.21
2018-12-16T10:13:44.666Z,6.67
2018-12-16T10:16:14.334Z,6.21
2018-12-16T10:18:40.243Z,6.27
2018-12-16T10:21:08.559Z,6.27
2018-12-16T10:23:34.447Z,7.05
2018-12-16T10:26:03.821Z,8.57
2018-12-16T10:28:29.690Z,10.02
2018-12-16T10:30:57.524Z,10.92
2018-12-16T10:33:23.437Z,11.51
2018-12-16T10:35:51.772Z,11.51
2018-12-16T10:38:17.748Z,12.95
2018-12-16T10:40:43.641Z,12.82
2018-12-16T10:43:09.566Z,11.94
2018-12-16T10:45:35.492Z,11.28
2018-12-16T10:48:04.981Z,11.04
2018-12-16T10:50:30.880Z,10.48
2018-12-16T10:53:00.499Z,10.00
2018-12-16T10:55:26.376Z,9.93
2018-12-16T10:57:56.084Z,9.95
2018-12-16T11:00:28.257Z,9.90
2018-12-16T11:02:54.143Z,10.45
2018-12-16T11:05:20.207Z,11.33
2018-12-16T11:07:46.088Z,11.90
2018-12-16T11:10:12.391Z,11.38
2018-12-16T11:12:38.696Z,12.01
2018-12-16T11:15:04.730Z,12.48
2018-12-16T11:17:30.634Z,13.18
2018-12-16T11:19:56.514Z,12.94
2018-12-16T11:22:22.393Z,12.86
2018-12-16T11:24:49.995Z,12.84
2018-12-16T11:27:15.864Z,12.61
2018-12-16T11:29:45.823Z,12.69
2018-12-16T11:32:11.670Z,12.42
2018-12-16T11:34:40.563Z,11.77
2018-12-16T11:37:06.431Z,11.80
2018-12-16T11:39:33.468Z,11.91
2018-12-16T11:41:59.338Z,12.08
2018-12-16T11:44:27.905Z,11.78
2018-12-16T11:46:53.796Z,11.23
2018-12-16T11:49:22.682Z,10.68
2018-12-16T11:51:48.727Z,10.05
2018-12-16T11:54:14.619Z,9.13
2018-12-16T11:56:40.529Z,8.53
2018-12-16T11:59:06.401Z,8.05
2018-12-16T12:01:35.738Z,7.55
2018-12-16T12:04:03.630Z,7.24
2018-12-16T12:06:29.571Z,7.06
2018-12-16T12:08:55.477Z,7.05
2018-12-16T12:11:24.941Z,6.70
2018-12-16T12:13:50.813Z,6.64
2018-12-16T12:16:19.992Z,6.78
2018-12-16T12:18:49.924Z,6.69
2018-12-16T12:21:15.809Z,6.54
2018-12-16T12:23:41.723Z,6.70
2018-12-16T12:26:08.733Z,6.71
2018-12-16T12:28:35.000Z,7.11
2018-12-16T12:31:01.029Z,7.62
2018-12-16T12:33:26.924Z,7.66
2018-12-16T12:35:52.799Z,7.90
2018-12-16T12:38:20.617Z,7.87
2018-12-16T12:40:46.514Z,7.61
2018-12-16T12:43:16.643Z,7.91
2018-12-16T12:45:42.591Z,8.10
2018-12-16T12:48:09.323Z,7.89
2018-12-16T12:50:35.225Z,7.67
2018-12-16T12:53:03.916Z,7.82
2018-12-16T12:55:29.856Z,7.65
2018-12-16T12:57:59.319Z,7.46
2018-12-16T13:00:25.765Z,7.58
2018-12-16T13:02:55.347Z,8.00
2018-12-16T13:05:21.222Z,8.17
2018-12-16T13:07:47.129Z,8.26
2018-12-16T13:10:13.435Z,8.22
2018-12-16T13:12:39.326Z,8.37
2018-12-16T13:15:05.426Z,8.37
2018-12-16T13:17:31.791Z,8.33
2018-12-16T13:20:00.719Z,8.33
2018-12-16T13:22:26.641Z,8.43
2018-12-16T13:25:08.851Z,8.67
2018-12-16T13:27:38.144Z,8.10
2018-12-16T13:30:05.484Z,9.00
2018-12-16T13:32:31.473Z,9.05
2018-12-16T13:34:57.336Z,9.08
2018-12-16T13:37:23.275Z,8.99
2018-12-16T13:39:49.140Z,8.80
2018-12-16T13:42:15.036Z,8.53
2018-12-16T13:44:40.885Z,8.38
2018-12-16T13:47:06.779Z,8.28
2018-12-16T13:49:32.657Z,8.35
2018-12-16T13:51:58.560Z,8.30
2018-12-16T13:54:24.531Z,8.66
2018-12-16T13:56:50.425Z,9.03
2018-12-16T13:59:16.358Z,9.26
2018-12-16T14:01:42.208Z,9.31
2018-12-16T14:04:08.126Z,9.43
2018-12-16T14:06:35.137Z,9.46
2018-12-16T14:09:02.156Z,9.49
2018-12-16T14:11:29.985Z,9.72
2018-12-16T14:13:55.867Z,9.65
2018-12-16T14:16:25.391Z,9.58
2018-12-16T14:18:51.243Z,9.65
2018-12-16T14:21:17.133Z,9.53
2018-12-16T14:23:42.996Z,9.33
2018-12-16T14:26:09.137Z,9.15
2018-12-16T14:28:36.381Z,9.19
2018-12-16T14:31:02.368Z,9.26
2018-12-16T14:33:32.262Z,8.89
2018-12-16T14:35:58.114Z,8.96
2018-12-16T14:38:27.561Z,8.96
2018-12-16T14:40:53.518Z,8.87
2018-12-16T14:43:19.917Z,8.96
2018-12-16T14:45:45.846Z,8.99
2018-12-16T14:48:14.496Z,8.92
2018-12-16T14:50:40.396Z,8.72
2018-12-16T14:53:09.332Z,8.76
2018-12-16T14:55:35.224Z,8.57
2018-12-16T14:58:01.211Z,8.44
2018-12-16T15:00:27.079Z,8.04
2018-12-16T15:02:52.976Z,7.57
2018-12-16T15:05:21.889Z,7.47
2018-12-16T15:07:47.791Z,7.14
2018-12-16T15:10:16.788Z,7.02
2018-12-16T15:12:42.767Z,6.86
2018-12-16T15:15:12.269Z,6.74
2018-12-16T15:17:42.668Z,6.65
2018-12-16T15:20:06.310Z,6.77
2018-12-16T15:22:32.203Z,6.67
2018-12-16T15:25:00.431Z,6.71
2018-12-16T15:27:26.392Z,6.62
2018-12-16T15:29:55.919Z,6.61
2018-12-16T15:32:21.781Z,6.55
2018-12-16T15:34:47.653Z,6.44
2018-12-16T15:37:13.521Z,6.37
2018-12-16T15:39:39.404Z,6.41
2018-12-16T15:42:06.745Z,6.49
2018-12-16T15:44:32.856Z,6.44
2018-12-16T15:47:01.704Z,6.40
2018-12-16T15:49:27.583Z,6.34
2018-12-16T15:51:55.820Z,6.24
2018-12-16T15:54:21.869Z,5.99
2018-12-16T15:56:50.778Z,5.98
2018-12-16T15:59:16.712Z,6.01
2018-12-16T16:01:46.279Z,6.05
2018-12-16T16:04:12.788Z,6.03
2018-12-16T16:06:40.238Z,6.11
2018-12-16T16:09:06.247Z,6.15
2018-12-16T16:11:32.244Z,6.11
2018-12-16T16:13:58.233Z,5.98
2018-12-16T16:16:24.092Z,5.98
2018-12-16T16:18:53.742Z,5.88
2018-12-16T16:21:19.600Z,5.79
2018-12-16T16:23:47.328Z,5.56
2018-12-16T16:26:16.404Z,5.34
2018-12-16T16:28:41.207Z,5.31
2018-12-16T16:31:07.105Z,5.41
2018-12-16T16:33:38.215Z,5.45
2018-12-16T16:36:04.091Z,5.39
2018-12-16T16:38:30.968Z,5.27
2018-12-16T16:40:57.178Z,5.25
2018-12-16T16:43:27.039Z,5.31
2018-12-16T16:45:52.947Z,5.40
2018-12-16T16:48:18.827Z,5.13
2018-12-16T16:50:44.690Z,5.09
2018-12-16T16:53:10.718Z,5.19
2018-12-16T16:55:37.965Z,5.14
2018-12-16T16:58:03.929Z,5.13
2018-12-16T17:00:33.783Z,5.18
2018-12-16T17:02:59.692Z,5.18
2018-12-16T17:05:26.645Z,5.20
2018-12-16T17:07:52.524Z,5.12
2018-12-16T17:10:21.353Z,5.03
2018-12-16T17:12:47.278Z,5.00
2018-12-16T17:15:17.233Z,4.89
2018-12-16T17:17:43.126Z,4.67
2018-12-16T17:20:12.254Z,4.64
2018-12-16T17:22:38.177Z,4.55
2018-12-16T17:25:06.531Z,4.53
2018-12-16T17:27:32.427Z,4.45
2018-12-16T17:29:58.304Z,4.32
2018-12-16T17:32:24.182Z,4.35
2018-12-16T17:34:54.310Z,4.29
2018-12-16T17:37:20.201Z,4.35
2018-12-16T17:39:46.072Z,4.30
2018-12-16T17:42:11.945Z,4.16
2018-12-16T17:44:37.874Z,4.12
2018-12-16T17:47:06.864Z,1.86
2018-12-16T17:49:32.793Z,4.08
2018-12-16T17:52:01.717Z,4.06
2018-12-16T17:54:27.610Z,3.91
2018-12-16T17:56:56.305Z,3.82
2018-12-16T17:59:22.195Z,3.60
2018-12-16T18:01:48.384Z,3.52
2018-12-16T18:04:14.312Z,3.51
2018-12-16T18:06:40.168Z,3.55
2018-12-16T18:09:08.174Z,3.62
2018-12-16T18:11:34.192Z,3.69
2018-12-16T18:14:04.018Z,3.68
2018-12-16T18:16:29.934Z,3.62
2018-12-16T18:18:57.819Z,3.55
2018-12-16T18:21:23.748Z,3.54
2018-12-16T18:23:53.434Z,3.48
2018-12-16T18:26:19.305Z,3.51
2018-12-16T18:28:46.969Z,3.51
2018-12-16T18:31:12.892Z,3.48
2018-12-16T18:33:42.555Z,3.44
2018-12-16T18:36:08.531Z,3.48
2018-12-16T18:38:34.442Z,3.45
2018-12-16T18:41:00.372Z,3.45
2018-12-16T18:43:26.320Z,3.45
2018-12-16T18:45:53.468Z,3.45
2018-12-16T18:48:20.585Z,3.51
2018-12-16T18:50:48.010Z,3.51
2018-12-16T18:53:13.892Z,3.51
2018-12-16T18:55:42.507Z,3.54
2018-12-16T18:58:10.160Z,2.58
2018-12-16T19:00:37.524Z,3.54
2018-12-16T19:03:03.425Z,3.56
2018-12-16T19:05:31.809Z,3.58
2018-12-16T19:07:57.783Z,3.57
2018-12-16T19:10:27.574Z,3.58
2018-12-16T19:12:53.500Z,3.51
2018-12-16T19:15:19.984Z,3.52
2018-12-16T19:17:45.903Z,3.51
2018-12-16T19:20:11.805Z,3.52
2018-12-16T19:22:38.899Z,3.53
2018-12-16T19:25:04.905Z,3.46
2018-12-16T19:27:33.285Z,3.46
2018-12-16T19:29:59.193Z,3.45
2018-12-16T19:32:29.308Z,1.59
2018-12-16T19:34:55.232Z,3.40
2018-12-16T19:37:22.713Z,3.36
2018-12-16T19:39:48.589Z,3.41
2018-12-16T19:42:18.459Z,3.46
2018-12-16T19:44:44.362Z,3.37
2018-12-16T19:47:12.231Z,3.41
2018-12-16T19:49:38.126Z,3.42
2018-12-16T19:52:04.092Z,3.48
2018-12-16T19:54:30.301Z,3.50
2018-12-16T19:56:56.211Z,3.53
2018-12-16T19:59:25.595Z,3.57
2018-12-16T20:01:51.462Z,3.64
2018-12-16T20:04:20.403Z,3.68
2018-12-16T20:06:47.119Z,3.66
2018-12-16T20:09:13.340Z,3.65
2018-12-16T20:11:39.237Z,3.62
2018-12-16T20:14:08.991Z,3.59
2018-12-16T20:16:34.906Z,3.59
2018-12-16T20:19:04.106Z,3.64
2018-12-16T20:21:30.004Z,3.65
2018-12-16T20:23:57.793Z,3.55
2018-12-16T20:26:23.697Z,3.51
2018-12-16T20:28:49.559Z,3.51
2018-12-16T20:31:15.467Z,3.55
2018-12-16T20:33:41.363Z,3.59
2018-12-16T20:36:10.780Z,3.50
2018-12-16T20:38:36.707Z,3.57
2018-12-16T20:41:04.780Z,3.49
2018-12-16T20:43:30.722Z,3.52
2018-12-16T20:46:00.462Z,3.51
2018-12-16T20:48:26.384Z,3.43
2018-12-16T20:50:53.105Z,3.44
2018-12-16T20:53:19.004Z,3.42
2018-12-16T20:55:48.052Z,3.36
2018-12-16T20:58:13.960Z,3.32
2018-12-16T21:00:43.525Z,3.25
2018-12-16T21:03:09.440Z,3.25
2018-12-16T21:05:35.307Z,3.21
2018-12-16T21:08:01.231Z,3.18
2018-12-16T21:10:27.118Z,3.12
2018-12-16T21:13:01.093Z,3.09
2018-12-16T21:15:33.283Z,3.06
2018-12-16T21:18:05.399Z,3.00
2018-12-16T21:20:31.337Z,2.92
2018-12-16T21:22:57.286Z,2.83
2018-12-16T21:25:23.133Z,2.82
2018-12-16T21:27:52.857Z,1.83
2018-12-16T21:30:18.786Z,2.81
2018-12-16T21:32:44.711Z,2.78
2018-12-16T21:35:10.572Z,2.12
2018-12-16T21:37:36.500Z,2.74
2018-12-16T21:40:03.335Z,2.64
2018-12-16T21:42:29.183Z,2.63
2018-12-16T21:44:55.883Z,2.58
2018-12-16T21:47:21.749Z,2.57
2018-12-16T21:49:47.762Z,2.55
2018-12-16T21:52:13.654Z,2.53
2018-12-16T21:54:39.516Z,2.54
2018-12-16T21:57:05.539Z,2.51
2018-12-16T21:59:31.593Z,2.46
2018-12-16T22:01:57.490Z,2.45
2018-12-16T22:04:23.990Z,2.51
2018-12-16T22:06:49.912Z,2.61
2018-12-16T22:09:18.433Z,2.68
2018-12-16T22:11:44.476Z,2.68
2018-12-16T22:14:14.550Z,2.68
2018-12-16T22:16:40.439Z,2.69
2018-12-16T22:19:06.347Z,2.73
2018-12-16T22:21:32.258Z,2.75
2018-12-16T22:23:58.156Z,2.74
2018-12-16T22:26:25.349Z,2.70
2018-12-16T22:28:51.370Z,2.74
2018-12-16T22:31:19.777Z,2.71
2018-12-16T22:33:45.666Z,2.79
2018-12-16T22:36:14.478Z,2.75
2018-12-16T22:38:40.342Z,2.76
2018-12-16T22:41:09.043Z,2.72
2018-12-16T22:43:34.918Z,2.72
2018-12-16T22:46:03.631Z,2.67
2018-12-16T22:48:29.491Z,2.72
2018-12-16T22:50:59.188Z,2.82
2018-12-16T22:53:25.092Z,2.80
2018-12-16T22:55:50.959Z,2.72
2018-12-16T22:58:16.832Z,2.71
2018-12-16T23:00:49.877Z,2.71
2018-12-16T23:03:15.768Z,2.77
2018-12-16T23:05:41.698Z,2.75
2018-12-16T23:08:07.644Z,2.77
2018-12-16T23:10:33.552Z,2.73
2018-12-16T23:13:00.391Z,2.64
2018-12-16T23:15:26.258Z,2.59
2018-12-16T23:17:56.090Z,2.55
2018-12-16T23:20:24.086Z,2.56
2018-12-16T23:22:50.056Z,2.58
2018-12-16T23:25:16.383Z,2.62
2018-12-16T23:27:45.658Z,2.62
2018-12-16T23:30:11.533Z,2.56
2018-12-16T23:32:37.440Z,2.54
2018-12-16T23:35:03.639Z,2.57
2018-12-16T23:37:29.570Z,2.55
2018-12-16T23:39:56.587Z,2.53
2018-12-16T23:42:22.471Z,2.53
2018-12-16T23:44:51.408Z,2.59
2018-12-16T23:47:17.264Z,2.63
2018-12-16T23:49:47.065Z,2.70
2018-12-16T23:52:13.039Z,2.59
2018-12-16T23:54:40.816Z,2.56
2018-12-16T23:57:06.847Z,2.56
2018-12-16T23:59:36.252Z,2.55
